sensor_id;sensor_type;location;lat;lon;timestamp;pressure;altitude;pressure_sealevel;temperature;humidity
42385;BME280;28042;43.986;22.860;2023-05-02T00:00:12;101454.97;;;11.10;93.41
42385;BME280;28042;43.986;22.860;2023-05-02T00:02:37;101493.56;;;11.29;93.19
42385;BME280;28042;43.986;22.860;2023-05-02T00:05:04;101514.47;;;11.37;93.22
42385;BME280;28042;43.986;22.860;2023-05-02T00:07:31;101517.59;;;11.34;93.60
42385;BME280;28042;43.986;22.860;2023-05-02T00:09:57;101514.19;;;11.32;94.16
42385;BME280;28042;43.986;22.860;2023-05-02T00:12:22;101443.22;;;10.86;94.82
42385;BME280;28042;43.986;22.860;2023-05-02T00:14:48;101442.84;;;10.89;94.85
42385;BME280;28042;43.986;22.860;2023-05-02T00:17:17;101455.94;;;10.94;94.67
42385;BME280;28042;43.986;22.860;2023-05-02T00:19:43;101448.66;;;10.86;94.67
42385;BME280;28042;43.986;22.860;2023-05-02T00:22:09;101514.69;;;11.13;95.45
42385;BME280;28042;43.986;22.860;2023-05-02T00:24:34;101473.16;;;10.94;95.27
42385;BME280;28042;43.986;22.860;2023-05-02T00:27:00;101513.94;;;11.19;95.34
42385;BME280;28042;43.986;22.860;2023-05-02T00:29:26;101465.38;;;10.83;95.06
42385;BME280;28042;43.986;22.860;2023-05-02T00:31:51;101512.66;;;11.07;95.77
42385;BME280;28042;43.986;22.860;2023-05-02T00:34:17;101462.22;;;10.71;96.00
42385;BME280;28042;43.986;22.860;2023-05-02T00:36:42;101471.56;;;10.77;96.44
42385;BME280;28042;43.986;22.860;2023-05-02T00:39:08;101484.19;;;10.78;96.17
42385;BME280;28042;43.986;22.860;2023-05-02T00:41:34;101534.13;;;11.10;96.22
42385;BME280;28042;43.986;22.860;2023-05-02T00:43:59;101494.38;;;10.84;96.30
42385;BME280;28042;43.986;22.860;2023-05-02T00:46:25;101488.16;;;10.67;97.97
42385;BME280;28042;43.986;22.860;2023-05-02T00:48:52;101545.31;;;11.00;98.60
42385;BME280;28042;43.986;22.860;2023-05-02T00:51:17;101439.38;;;10.41;98.34
42385;BME280;28042;43.986;22.860;2023-05-02T00:53:44;101531.19;;;10.96;98.86
42385;BME280;28042;43.986;22.860;2023-05-02T00:56:09;101541.41;;;10.94;98.27
42385;BME280;28042;43.986;22.860;2023-05-02T00:58:36;101473.72;;;10.59;98.00
42385;BME280;28042;43.986;22.860;2023-05-02T01:01:25;101543.59;;;10.99;97.07
42385;BME280;28042;43.986;22.860;2023-05-02T01:04:39;101534.25;;;10.93;96.89
42385;BME280;28042;43.986;22.860;2023-05-02T01:13:08;101516.53;;;10.58;98.60
42385;BME280;28042;43.986;22.860;2023-05-02T01:15:40;101525.09;;;10.47;99.63
42385;BME280;28042;43.986;22.860;2023-05-02T01:18:08;101557.63;;;10.57;99.74
42385;BME280;28042;43.986;22.860;2023-05-02T01:20:36;101515.66;;;10.18;100.00
42385;BME280;28042;43.986;22.860;2023-05-02T01:23:16;101543.03;;;10.33;100.00
42385;BME280;28042;43.986;22.860;2023-05-02T01:25:55;101548.50;;;10.33;100.00
42385;BME280;28042;43.986;22.860;2023-05-02T01:31:12;101492.38;;;10.00;100.00
42385;BME280;28042;43.986;22.860;2023-05-02T01:33:41;101529.78;;;10.14;100.00
42385;BME280;28042;43.986;22.860;2023-05-02T01:36:08;101491.00;;;9.87;100.00
42385;BME280;28042;43.986;22.860;2023-05-02T01:38:34;101538.63;;;10.16;100.00
42385;BME280;28042;43.986;22.860;2023-05-02T01:41:00;101549.88;;;10.29;100.00
42385;BME280;28042;43.986;22.860;2023-05-02T01:43:32;101494.06;;;9.93;100.00
42385;BME280;28042;43.986;22.860;2023-05-02T01:45:59;101557.03;;;10.30;100.00
42385;BME280;28042;43.986;22.860;2023-05-02T01:48:26;101473.97;;;9.94;100.00
42385;BME280;28042;43.986;22.860;2023-05-02T01:50:53;101493.22;;;10.00;100.00
42385;BME280;28042;43.986;22.860;2023-05-02T01:53:19;101510.41;;;10.09;100.00
42385;BME280;28042;43.986;22.860;2023-05-02T01:55:48;101542.91;;;10.27;100.00
42385;BME280;28042;43.986;22.860;2023-05-02T01:58:15;101551.44;;;10.24;100.00
42385;BME280;28042;43.986;22.860;2023-05-02T02:00:42;101554.13;;;10.15;100.00
42385;BME280;28042;43.986;22.860;2023-05-02T02:03:09;101547.53;;;10.02;100.00
42385;BME280;28042;43.986;22.860;2023-05-02T02:05:36;101534.59;;;9.96;100.00
42385;BME280;28042;43.986;22.860;2023-05-02T02:08:03;101538.19;;;9.96;100.00
42385;BME280;28042;43.986;22.860;2023-05-02T02:10:32;101553.00;;;10.02;100.00
42385;BME280;28042;43.986;22.860;2023-05-02T02:13:06;101495.81;;;9.61;100.00
42385;BME280;28042;43.986;22.860;2023-05-02T02:15:34;101529.00;;;9.81;100.00
42385;BME280;28042;43.986;22.860;2023-05-02T02:18:06;101509.09;;;9.64;100.00
42385;BME280;28042;43.986;22.860;2023-05-02T02:20:34;101514.41;;;9.66;100.00
42385;BME280;28042;43.986;22.860;2023-05-02T02:23:02;101571.06;;;9.95;100.00
42385;BME280;28042;43.986;22.860;2023-05-02T02:25:30;101504.00;;;9.53;100.00
42385;BME280;28042;43.986;22.860;2023-05-02T02:27:56;101554.41;;;9.73;100.00
42385;BME280;28042;43.986;22.860;2023-05-02T02:30:22;101569.88;;;9.73;100.00
42385;BME280;28042;43.986;22.860;2023-05-02T02:32:47;101562.41;;;9.75;100.00
42385;BME280;28042;43.986;22.860;2023-05-02T02:35:13;101496.53;;;9.39;100.00
42385;BME280;28042;43.986;22.860;2023-05-02T02:40:52;101573.44;;;9.81;100.00
42385;BME280;28042;43.986;22.860;2023-05-02T02:46:16;101515.25;;;9.42;100.00
42385;BME280;28042;43.986;22.860;2023-05-02T02:51:45;101572.78;;;9.63;100.00
42385;BME280;28042;43.986;22.860;2023-05-02T02:54:46;101580.25;;;9.45;100.00
42385;BME280;28042;43.986;22.860;2023-05-02T02:57:17;101523.69;;;8.90;100.00
42385;BME280;28042;43.986;22.860;2023-05-02T03:02:35;101559.25;;;8.88;100.00
42385;BME280;28042;43.986;22.860;2023-05-02T03:05:03;101585.25;;;8.91;100.00
42385;BME280;28042;43.986;22.860;2023-05-02T03:07:30;101568.53;;;8.69;100.00
42385;BME280;28042;43.986;22.860;2023-05-02T03:09:55;101518.31;;;8.21;100.00
42385;BME280;28042;43.986;22.860;2023-05-02T03:12:21;101530.88;;;8.22;100.00
42385;BME280;28042;43.986;22.860;2023-05-02T03:14:47;101596.75;;;8.42;100.00
42385;BME280;28042;43.986;22.860;2023-05-02T03:17:12;101610.22;;;8.44;100.00
42385;BME280;28042;43.986;22.860;2023-05-02T03:19:38;101609.72;;;8.22;100.00
42385;BME280;28042;43.986;22.860;2023-05-02T03:22:04;101611.56;;;8.22;100.00
42385;BME280;28042;43.986;22.860;2023-05-02T03:24:29;101589.50;;;7.99;100.00
42385;BME280;28042;43.986;22.860;2023-05-02T03:26:56;101565.31;;;7.88;100.00
42385;BME280;28042;43.986;22.860;2023-05-02T03:29:23;101628.00;;;8.12;100.00
42385;BME280;28042;43.986;22.860;2023-05-02T03:31:49;101602.78;;;8.02;100.00
42385;BME280;28042;43.986;22.860;2023-05-02T03:34:15;101569.06;;;7.87;100.00
42385;BME280;28042;43.986;22.860;2023-05-02T03:36:40;101570.47;;;7.91;100.00
42385;BME280;28042;43.986;22.860;2023-05-02T03:39:06;101559.19;;;7.86;100.00
42385;BME280;28042;43.986;22.860;2023-05-02T03:41:31;101629.34;;;8.34;100.00
42385;BME280;28042;43.986;22.860;2023-05-02T03:43:57;101629.63;;;8.31;100.00
42385;BME280;28042;43.986;22.860;2023-05-02T03:46:22;101596.75;;;8.16;100.00
42385;BME280;28042;43.986;22.860;2023-05-02T03:48:48;101626.00;;;8.22;100.00
42385;BME280;28042;43.986;22.860;2023-05-02T03:51:15;101622.28;;;8.23;100.00
42385;BME280;28042;43.986;22.860;2023-05-02T03:53:40;101633.97;;;8.42;100.00
42385;BME280;28042;43.986;22.860;2023-05-02T03:56:06;101622.25;;;8.75;100.00
42385;BME280;28042;43.986;22.860;2023-05-02T03:58:33;101621.75;;;9.14;100.00
42385;BME280;28042;43.986;22.860;2023-05-02T04:01:00;101614.66;;;9.70;100.00
42385;BME280;28042;43.986;22.860;2023-05-02T04:03:26;101642.41;;;10.47;100.00
42385;BME280;28042;43.986;22.860;2023-05-02T04:05:52;101633.28;;;11.10;99.48
42385;BME280;28042;43.986;22.860;2023-05-02T04:08:18;101623.69;;;11.45;92.18
42385;BME280;28042;43.986;22.860;2023-05-02T04:10:43;101635.19;;;11.64;86.69
42385;BME280;28042;43.986;22.860;2023-05-02T04:13:09;101610.78;;;12.08;85.26
42385;BME280;28042;43.986;22.860;2023-05-02T04:15:34;101600.06;;;12.36;81.12
42385;BME280;28042;43.986;22.860;2023-05-02T04:18:00;101567.69;;;12.39;78.96
42385;BME280;28042;43.986;22.860;2023-05-02T04:20:25;101581.13;;;13.00;75.56
42385;BME280;28042;43.986;22.860;2023-05-02T04:22:51;101585.81;;;13.57;73.20
42385;BME280;28042;43.986;22.860;2023-05-02T04:25:16;101619.47;;;13.94;72.45
42385;BME280;28042;43.986;22.860;2023-05-02T04:27:42;101609.78;;;14.47;70.67
42385;BME280;28042;43.986;22.860;2023-05-02T04:30:08;101590.09;;;14.43;69.13
42385;BME280;28042;43.986;22.860;2023-05-02T04:32:35;101629.84;;;14.48;71.01
42385;BME280;28042;43.986;22.860;2023-05-02T04:35:00;101619.16;;;15.01;69.56
42385;BME280;28042;43.986;22.860;2023-05-02T04:37:26;101583.94;;;14.76;67.62
42385;BME280;28042;43.986;22.860;2023-05-02T04:39:52;101591.28;;;15.04;67.66
42385;BME280;28042;43.986;22.860;2023-05-02T04:42:17;101568.97;;;15.33;65.84
42385;BME280;28042;43.986;22.860;2023-05-02T04:44:42;101611.19;;;15.19;65.54
42385;BME280;28042;43.986;22.860;2023-05-02T04:47:08;101584.53;;;14.65;66.83
42385;BME280;28042;43.986;22.860;2023-05-02T04:49:33;101592.06;;;14.91;66.96
42385;BME280;28042;43.986;22.860;2023-05-02T04:51:59;101634.59;;;15.56;64.36
42385;BME280;28042;43.986;22.860;2023-05-02T04:54:24;101636.78;;;16.07;62.45
42385;BME280;28042;43.986;22.860;2023-05-02T04:56:50;101585.56;;;15.79;62.34
42385;BME280;28042;43.986;22.860;2023-05-02T04:59:15;101645.28;;;16.19;61.73
42385;BME280;28042;43.986;22.860;2023-05-02T05:01:41;101630.03;;;16.43;60.97
42385;BME280;28042;43.986;22.860;2023-05-02T05:04:06;101648.63;;;16.87;59.54
42385;BME280;28042;43.986;22.860;2023-05-02T05:06:32;101621.06;;;16.87;58.86
42385;BME280;28042;43.986;22.860;2023-05-02T05:08:57;101643.13;;;16.60;59.08
42385;BME280;28042;43.986;22.860;2023-05-02T05:11:24;101616.41;;;16.81;59.09
42385;BME280;28042;43.986;22.860;2023-05-02T05:13:50;101635.06;;;16.65;58.07
42385;BME280;28042;43.986;22.860;2023-05-02T05:16:17;101633.78;;;16.88;59.51
42385;BME280;28042;43.986;22.860;2023-05-02T05:18:45;101641.44;;;16.53;59.62
42385;BME280;28042;43.986;22.860;2023-05-02T05:21:10;101633.47;;;17.09;57.57
42385;BME280;28042;43.986;22.860;2023-05-02T05:23:36;101640.88;;;17.15;57.41
42385;BME280;28042;43.986;22.860;2023-05-02T05:26:09;101597.34;;;16.73;57.14
42385;BME280;28042;43.986;22.860;2023-05-02T05:28:35;101631.00;;;16.88;58.34
42385;BME280;28042;43.986;22.860;2023-05-02T05:31:08;101648.63;;;16.87;58.07
42385;BME280;28042;43.986;22.860;2023-05-02T05:33:35;101642.28;;;16.40;60.06
42385;BME280;28042;43.986;22.860;2023-05-02T05:36:08;101587.25;;;15.74;62.13
42385;BME280;28042;43.986;22.860;2023-05-02T05:38:35;101608.41;;;16.33;60.36
42385;BME280;28042;43.986;22.860;2023-05-02T05:41:00;101608.84;;;15.97;61.85
42385;BME280;28042;43.986;22.860;2023-05-02T05:43:26;101643.75;;;16.62;61.17
42385;BME280;28042;43.986;22.860;2023-05-02T05:45:53;101585.53;;;16.39;61.22
42385;BME280;28042;43.986;22.860;2023-05-02T05:48:18;101593.97;;;16.57;61.30
42385;BME280;28042;43.986;22.860;2023-05-02T05:50:44;101595.66;;;16.58;60.82
42385;BME280;28042;43.986;22.860;2023-05-02T05:53:10;101647.69;;;17.13;59.87
42385;BME280;28042;43.986;22.860;2023-05-02T05:55:35;101662.63;;;16.79;61.17
42385;BME280;28042;43.986;22.860;2023-05-02T05:58:02;101560.78;;;16.97;59.31
42385;BME280;28042;43.986;22.860;2023-05-02T06:00:28;101649.56;;;17.64;59.02
42385;BME280;28042;43.986;22.860;2023-05-02T06:02:53;101623.44;;;17.98;57.83
42385;BME280;28042;43.986;22.860;2023-05-02T06:05:18;101604.94;;;17.73;57.44
42385;BME280;28042;43.986;22.860;2023-05-02T06:07:44;101590.94;;;18.00;56.86
42385;BME280;28042;43.986;22.860;2023-05-02T06:10:10;101646.59;;;18.22;56.09
42385;BME280;28042;43.986;22.860;2023-05-02T06:12:35;101606.88;;;17.98;56.93
42385;BME280;28042;43.986;22.860;2023-05-02T06:15:00;101652.09;;;17.65;56.68
42385;BME280;28042;43.986;22.860;2023-05-02T06:17:26;101664.81;;;17.66;58.31
42385;BME280;28042;43.986;22.860;2023-05-02T06:19:51;101656.31;;;17.74;58.10
42385;BME280;28042;43.986;22.860;2023-05-02T06:22:17;101659.06;;;18.06;56.80
42385;BME280;28042;43.986;22.860;2023-05-02T06:24:42;101659.31;;;17.73;57.12
42385;BME280;28042;43.986;22.860;2023-05-02T06:27:08;101639.50;;;17.38;59.29
42385;BME280;28042;43.986;22.860;2023-05-02T06:29:33;101607.03;;;16.95;59.48
42385;BME280;28042;43.986;22.860;2023-05-02T06:31:59;101612.31;;;17.03;61.38
42385;BME280;28042;43.986;22.860;2023-05-02T06:34:24;101668.47;;;17.02;62.26
42385;BME280;28042;43.986;22.860;2023-05-02T06:36:56;101661.34;;;16.88;62.55
42385;BME280;28042;43.986;22.860;2023-05-02T06:39:21;101667.72;;;16.55;64.18
42385;BME280;28042;43.986;22.860;2023-05-02T06:41:47;101659.88;;;16.52;64.79
42385;BME280;28042;43.986;22.860;2023-05-02T06:44:15;101652.88;;;16.56;64.98
42385;BME280;28042;43.986;22.860;2023-05-02T06:46:41;101594.56;;;16.66;65.14
42385;BME280;28042;43.986;22.860;2023-05-02T06:49:06;101652.00;;;16.76;63.19
42385;BME280;28042;43.986;22.860;2023-05-02T06:51:32;101601.59;;;16.62;64.25
42385;BME280;28042;43.986;22.860;2023-05-02T06:53:57;101648.00;;;16.72;63.30
42385;BME280;28042;43.986;22.860;2023-05-02T06:56:23;101630.34;;;16.99;64.72
42385;BME280;28042;43.986;22.860;2023-05-02T06:58:52;101638.28;;;17.27;63.31
42385;BME280;28042;43.986;22.860;2023-05-02T07:01:18;101640.63;;;17.30;62.85
42385;BME280;28042;43.986;22.860;2023-05-02T07:03:45;101641.94;;;17.59;61.76
42385;BME280;28042;43.986;22.860;2023-05-02T07:06:10;101644.66;;;17.66;61.95
42385;BME280;28042;43.986;22.860;2023-05-02T07:08:35;101596.16;;;17.45;61.62
42385;BME280;28042;43.986;22.860;2023-05-02T07:11:01;101602.34;;;17.47;62.28
42385;BME280;28042;43.986;22.860;2023-05-02T07:13:28;101595.59;;;17.74;61.70
42385;BME280;28042;43.986;22.860;2023-05-02T07:15:53;101648.88;;;18.31;60.50
42385;BME280;28042;43.986;22.860;2023-05-02T07:18:19;101591.75;;;17.75;60.50
42385;BME280;28042;43.986;22.860;2023-05-02T07:20:45;101593.53;;;17.95;60.76
42385;BME280;28042;43.986;22.860;2023-05-02T07:23:11;101589.53;;;17.91;60.30
42385;BME280;28042;43.986;22.860;2023-05-02T07:25:36;101640.66;;;18.25;59.23
42385;BME280;28042;43.986;22.860;2023-05-02T07:28:02;101627.25;;;18.47;59.83
42385;BME280;28042;43.986;22.860;2023-05-02T07:30:27;101632.19;;;18.63;59.08
42385;BME280;28042;43.986;22.860;2023-05-02T07:32:53;101636.44;;;18.41;59.50
42385;BME280;28042;43.986;22.860;2023-05-02T07:35:18;101640.00;;;18.48;59.94
42385;BME280;28042;43.986;22.860;2023-05-02T07:37:44;101645.81;;;18.40;60.02
42385;BME280;28042;43.986;22.860;2023-05-02T07:40:10;101639.47;;;18.57;58.64
42385;BME280;28042;43.986;22.860;2023-05-02T07:42:35;101631.34;;;18.69;59.13
42385;BME280;28042;43.986;22.860;2023-05-02T07:45:01;101629.91;;;18.60;59.37
42385;BME280;28042;43.986;22.860;2023-05-02T07:47:26;101634.34;;;18.61;59.29
42385;BME280;28042;43.986;22.860;2023-05-02T07:49:55;101634.94;;;18.45;60.76
42385;BME280;28042;43.986;22.860;2023-05-02T07:52:21;101594.88;;;18.54;60.22
42385;BME280;28042;43.986;22.860;2023-05-02T07:54:47;101639.16;;;18.72;59.98
42385;BME280;28042;43.986;22.860;2023-05-02T07:57:13;101627.78;;;19.17;59.44
42385;BME280;28042;43.986;22.860;2023-05-02T07:59:39;101631.28;;;19.42;58.50
42385;BME280;28042;43.986;22.860;2023-05-02T08:02:05;101624.47;;;19.87;57.46
42385;BME280;28042;43.986;22.860;2023-05-02T08:04:31;101632.47;;;20.07;55.38
42385;BME280;28042;43.986;22.860;2023-05-02T08:06:56;101635.66;;;19.80;55.21
42385;BME280;28042;43.986;22.860;2023-05-02T08:09:22;101617.75;;;19.94;55.76
42385;BME280;28042;43.986;22.860;2023-05-02T08:11:47;101635.16;;;20.37;55.27
42385;BME280;28042;43.986;22.860;2023-05-02T08:14:14;101639.06;;;20.47;54.50
42385;BME280;28042;43.986;22.860;2023-05-02T08:16:40;101640.50;;;20.62;53.51
42385;BME280;28042;43.986;22.860;2023-05-02T08:19:06;101556.84;;;19.94;53.02
42385;BME280;28042;43.986;22.860;2023-05-02T08:21:31;101584.56;;;20.18;54.17
42385;BME280;28042;43.986;22.860;2023-05-02T08:23:57;101623.88;;;20.50;53.43
42385;BME280;28042;43.986;22.860;2023-05-02T08:26:23;101586.28;;;20.54;52.30
42385;BME280;28042;43.986;22.860;2023-05-02T08:28:52;101614.09;;;20.71;52.36
42385;BME280;28042;43.986;22.860;2023-05-02T08:31:18;101577.94;;;20.66;51.50
42385;BME280;28042;43.986;22.860;2023-05-02T08:33:44;101617.06;;;21.04;52.06
42385;BME280;28042;43.986;22.860;2023-05-02T08:36:14;101624.09;;;20.72;51.09
42385;BME280;28042;43.986;22.860;2023-05-02T08:38:40;101614.88;;;21.06;51.33
42385;BME280;28042;43.986;22.860;2023-05-02T08:41:10;101621.22;;;21.18;50.26
42385;BME280;28042;43.986;22.860;2023-05-02T08:43:37;101566.91;;;20.94;48.66
42385;BME280;28042;43.986;22.860;2023-05-02T08:46:04;101612.91;;;21.18;49.68
42385;BME280;28042;43.986;22.860;2023-05-02T08:48:32;101603.53;;;21.08;49.61
42385;BME280;28042;43.986;22.860;2023-05-02T08:51:01;101603.94;;;20.88;48.60
42385;BME280;28042;43.986;22.860;2023-05-02T08:53:27;101597.78;;;20.98;49.13
42385;BME280;28042;43.986;22.860;2023-05-02T08:55:54;101599.38;;;21.34;47.79
42385;BME280;28042;43.986;22.860;2023-05-02T08:58:19;101550.09;;;21.41;47.68
42385;BME280;28042;43.986;22.860;2023-05-02T09:00:47;101590.56;;;21.82;47.27
42385;BME280;28042;43.986;22.860;2023-05-02T09:03:29;101583.19;;;21.59;46.48
42385;BME280;28042;43.986;22.860;2023-05-02T09:06:18;101587.88;;;22.04;45.13
42385;BME280;28042;43.986;22.860;2023-05-02T09:08:47;101601.31;;;22.07;43.63
42385;BME280;28042;43.986;22.860;2023-05-02T09:11:19;101581.88;;;22.07;42.13
42385;BME280;28042;43.986;22.860;2023-05-02T09:13:47;101583.19;;;22.21;40.72
42385;BME280;28042;43.986;22.860;2023-05-02T09:16:13;101590.81;;;22.48;39.56
42385;BME280;28042;43.986;22.860;2023-05-02T09:18:43;101589.22;;;22.52;38.79
42385;BME280;28042;43.986;22.860;2023-05-02T09:21:14;101528.25;;;22.28;37.98
42385;BME280;28042;43.986;22.860;2023-05-02T09:23:42;101588.41;;;22.73;37.82
42385;BME280;28042;43.986;22.860;2023-05-02T09:26:27;101579.25;;;22.56;35.34
42385;BME280;28042;43.986;22.860;2023-05-02T09:28:59;101571.56;;;22.63;35.84
42385;BME280;28042;43.986;22.860;2023-05-02T09:31:30;101543.13;;;22.78;36.09
42385;BME280;28042;43.986;22.860;2023-05-02T09:34:09;101567.69;;;23.03;35.49
42385;BME280;28042;43.986;22.860;2023-05-02T09:36:44;101564.75;;;22.93;34.24
42385;BME280;28042;43.986;22.860;2023-05-02T09:39:12;101555.34;;;22.94;34.54
42385;BME280;28042;43.986;22.860;2023-05-02T09:41:41;101512.03;;;23.03;35.27
42385;BME280;28042;43.986;22.860;2023-05-02T09:44:11;101504.06;;;22.68;33.76
42385;BME280;28042;43.986;22.860;2023-05-02T09:46:45;101514.13;;;22.74;32.70
42385;BME280;28042;43.986;22.860;2023-05-02T09:49:11;101512.72;;;22.71;32.06
42385;BME280;28042;43.986;22.860;2023-05-02T09:51:39;101547.56;;;22.96;32.09
42385;BME280;28042;43.986;22.860;2023-05-02T09:54:05;101544.88;;;23.06;32.45
42385;BME280;28042;43.986;22.860;2023-05-02T09:56:30;101502.88;;;22.64;32.92
42385;BME280;28042;43.986;22.860;2023-05-02T09:59:12;101539.78;;;23.20;32.71
42385;BME280;28042;43.986;22.860;2023-05-02T10:01:41;101545.22;;;23.36;32.17
42385;BME280;28042;43.986;22.860;2023-05-02T10:04:12;101490.16;;;22.68;33.50
42385;BME280;28042;43.986;22.860;2023-05-02T10:06:43;101498.78;;;23.15;32.61
42385;BME280;28042;43.986;22.860;2023-05-02T10:09:10;101536.50;;;23.55;32.73
42385;BME280;28042;43.986;22.860;2023-05-02T10:11:41;101531.91;;;23.65;32.04
42385;BME280;28042;43.986;22.860;2023-05-02T10:14:09;101537.22;;;23.45;32.25
42385;BME280;28042;43.986;22.860;2023-05-02T10:16:45;101510.53;;;23.49;31.74
42385;BME280;28042;43.986;22.860;2023-05-02T10:19:19;101479.13;;;23.00;32.19
42385;BME280;28042;43.986;22.860;2023-05-02T10:21:48;101487.44;;;22.95;32.41
42385;BME280;28042;43.986;22.860;2023-05-02T10:24:15;101473.06;;;23.03;32.90
42385;BME280;28042;43.986;22.860;2023-05-02T10:26:41;101463.16;;;23.17;32.13
42385;BME280;28042;43.986;22.860;2023-05-02T10:29:07;101482.28;;;23.08;32.47
42385;BME280;28042;43.986;22.860;2023-05-02T10:31:33;101509.63;;;23.11;33.15
42385;BME280;28042;43.986;22.860;2023-05-02T10:33:59;101469.94;;;23.26;33.36
42385;BME280;28042;43.986;22.860;2023-05-02T10:36:27;101456.63;;;23.60;31.81
42385;BME280;28042;43.986;22.860;2023-05-02T10:38:53;101507.38;;;24.05;31.50
42385;BME280;28042;43.986;22.860;2023-05-02T10:41:21;101499.13;;;24.20;30.85
42385;BME280;28042;43.986;22.860;2023-05-02T10:43:48;101493.31;;;23.84;31.77
42385;BME280;28042;43.986;22.860;2023-05-02T10:46:36;101498.47;;;24.03;32.22
42385;BME280;28042;43.986;22.860;2023-05-02T10:49:10;101442.88;;;23.81;31.91
42385;BME280;28042;43.986;22.860;2023-05-02T10:51:38;101442.22;;;23.41;31.99
42385;BME280;28042;43.986;22.860;2023-05-02T10:59:30;101490.13;;;23.71;31.94
42385;BME280;28042;43.986;22.860;2023-05-02T11:01:56;101493.50;;;24.15;31.12
42385;BME280;28042;43.986;22.860;2023-05-02T11:04:22;101490.44;;;24.53;30.40
42385;BME280;28042;43.986;22.860;2023-05-02T11:11:54;101422.09;;;24.61;29.23
42385;BME280;28042;43.986;22.860;2023-05-02T11:17:07;101425.78;;;24.77;29.05
42385;BME280;28042;43.986;22.860;2023-05-02T11:24:52;101480.94;;;24.55;30.57
42385;BME280;28042;43.986;22.860;2023-05-02T11:30:06;101484.63;;;24.18;30.95
42385;BME280;28042;43.986;22.860;2023-05-02T11:40:22;101459.31;;;24.30;30.88
42385;BME280;28042;43.986;22.860;2023-05-02T11:42:48;101397.94;;;23.72;30.91
42385;BME280;28042;43.986;22.860;2023-05-02T11:45:14;101465.75;;;23.88;31.81
42385;BME280;28042;43.986;22.860;2023-05-02T11:47:40;101438.97;;;23.87;31.09
42385;BME280;28042;43.986;22.860;2023-05-02T11:50:06;101436.63;;;24.11;32.02
42385;BME280;28042;43.986;22.860;2023-05-02T11:52:41;101445.72;;;24.33;32.01
42385;BME280;28042;43.986;22.860;2023-05-02T11:55:11;101446.13;;;24.15;31.02
42385;BME280;28042;43.986;22.860;2023-05-02T11:57:38;101452.47;;;24.05;31.27
42385;BME280;28042;43.986;22.860;2023-05-02T12:00:04;101420.13;;;24.04;31.20
42385;BME280;28042;43.986;22.860;2023-05-02T12:02:38;101431.00;;;24.06;31.02
42385;BME280;28042;43.986;22.860;2023-05-02T12:05:05;101433.84;;;24.11;30.24
42385;BME280;28042;43.986;22.860;2023-05-02T12:10:08;101412.84;;;24.45;30.26
42385;BME280;28042;43.986;22.860;2023-05-02T12:12:34;101420.22;;;24.77;30.38
42385;BME280;28042;43.986;22.860;2023-05-02T12:15:08;101422.47;;;24.85;29.57
42385;BME280;28042;43.986;22.860;2023-05-02T12:17:44;101382.25;;;24.81;30.14
42385;BME280;28042;43.986;22.860;2023-05-02T12:20:10;101399.00;;;25.01;29.27
42385;BME280;28042;43.986;22.860;2023-05-02T12:22:36;101407.47;;;25.32;29.43
42385;BME280;28042;43.986;22.860;2023-05-02T12:25:03;101367.25;;;25.13;28.99
42385;BME280;28042;43.986;22.860;2023-05-02T12:27:29;101400.75;;;25.23;28.41
42385;BME280;28042;43.986;22.860;2023-05-02T12:29:57;101405.22;;;25.49;29.25
42385;BME280;28042;43.986;22.860;2023-05-02T12:32:31;101370.03;;;25.07;28.55
42385;BME280;28042;43.986;22.860;2023-05-02T12:34:58;101360.50;;;24.98;28.89
42385;BME280;28042;43.986;22.860;2023-05-02T12:37:24;101370.53;;;24.99;28.67
42385;BME280;28042;43.986;22.860;2023-05-02T12:39:51;101384.13;;;24.50;28.80
42385;BME280;28042;43.986;22.860;2023-05-02T12:42:19;101392.00;;;24.68;29.31
42385;BME280;28042;43.986;22.860;2023-05-02T12:44:46;101376.66;;;24.81;29.01
42385;BME280;28042;43.986;22.860;2023-05-02T12:47:14;101319.09;;;24.49;29.35
42385;BME280;28042;43.986;22.860;2023-05-02T12:52:44;101336.47;;;24.77;29.11
42385;BME280;28042;43.986;22.860;2023-05-02T12:55:16;101371.66;;;24.78;29.89
42385;BME280;28042;43.986;22.860;2023-05-02T12:57:42;101373.31;;;24.79;29.62
42385;BME280;28042;43.986;22.860;2023-05-02T13:00:08;101354.88;;;24.93;29.56
42385;BME280;28042;43.986;22.860;2023-05-02T13:02:34;101321.09;;;24.64;29.72
42385;BME280;28042;43.986;22.860;2023-05-02T13:05:00;101304.09;;;24.61;29.69
42385;BME280;28042;43.986;22.860;2023-05-02T13:07:25;101329.75;;;24.63;29.81
42385;BME280;28042;43.986;22.860;2023-05-02T13:09:51;101309.34;;;24.37;30.23
42385;BME280;28042;43.986;22.860;2023-05-02T13:12:16;101341.50;;;24.80;30.00
42385;BME280;28042;43.986;22.860;2023-05-02T13:14:42;101330.94;;;25.13;29.93
42385;BME280;28042;43.986;22.860;2023-05-02T13:17:08;101348.53;;;25.13;29.34
42385;BME280;28042;43.986;22.860;2023-05-02T13:19:34;101342.34;;;24.80;29.56
42385;BME280;28042;43.986;22.860;2023-05-02T13:22:00;101336.47;;;24.77;30.25
42385;BME280;28042;43.986;22.860;2023-05-02T13:24:26;101337.59;;;24.86;29.58
42385;BME280;28042;43.986;22.860;2023-05-02T13:26:51;101294.63;;;24.87;28.93
42385;BME280;28042;43.986;22.860;2023-05-02T13:29:17;101335.41;;;25.14;29.53
42385;BME280;28042;43.986;22.860;2023-05-02T13:31:43;101324.78;;;25.21;28.82
42385;BME280;28042;43.986;22.860;2023-05-02T13:34:09;101323.91;;;25.00;29.22
42385;BME280;28042;43.986;22.860;2023-05-02T13:36:34;101323.69;;;25.12;28.83